createdAt,value
2022-11-18T00:00:27.307Z,11.72
2022-11-18T00:02:54.275Z,11.93
2022-11-18T00:05:20.996Z,11.72
2022-11-18T00:07:47.674Z,11.20
2022-11-18T00:10:14.439Z,11.27
2022-11-18T00:12:59.803Z,11.43
2022-11-18T00:15:31.562Z,11.72
2022-11-18T00:17:58.592Z,11.80
2022-11-18T00:20:25.257Z,11.90
2022-11-18T00:22:51.983Z,11.97
2022-11-18T00:25:18.775Z,11.88
2022-11-18T00:27:45.506Z,11.87
2022-11-18T00:30:12.197Z,11.92
2022-11-18T00:32:38.869Z,11.93
2022-11-18T00:35:05.940Z,11.89
2022-11-18T00:37:32.644Z,11.82
2022-11-18T00:39:59.389Z,11.78
2022-11-18T00:42:44.707Z,11.78
2022-11-18T00:45:11.491Z,12.01
2022-11-18T00:47:38.229Z,12.01
2022-11-18T00:50:05.127Z,12.00
2022-11-18T00:52:31.878Z,12.06
2022-11-18T00:54:58.834Z,12.09
2022-11-18T00:57:25.595Z,12.00
2022-11-18T00:59:52.427Z,12.13
2022-11-18T01:02:19.168Z,12.19
2022-11-18T01:04:45.863Z,12.12
2022-11-18T01:07:12.674Z,12.27
2022-11-18T01:09:39.352Z,12.20
2022-11-18T01:12:24.894Z,11.78
2022-11-18T01:14:51.601Z,12.01
2022-11-18T01:17:18.556Z,12.02
2022-11-18T01:19:45.361Z,12.15
2022-11-18T01:22:12.041Z,12.21
2022-11-18T01:24:38.814Z,11.99
2022-11-18T01:27:05.537Z,11.89
2022-11-18T01:29:32.275Z,11.99
2022-11-18T01:32:23.476Z,11.50
2022-11-18T01:34:45.876Z,11.95
2022-11-18T01:37:12.838Z,11.62
2022-11-18T01:39:39.601Z,11.45
2022-11-18T01:42:12.047Z,11.48
2022-11-18T01:44:56.910Z,11.47
2022-11-18T01:47:24.134Z,11.11
2022-11-18T01:49:51.124Z,11.60
2022-11-18T01:52:17.964Z,11.79
2022-11-18T01:54:48.113Z,11.81
2022-11-18T01:57:17.772Z,11.81
2022-11-18T01:59:46.629Z,11.34
2022-11-18T02:02:15.008Z,11.10
2022-11-18T02:04:43.988Z,11.29
2022-11-18T02:07:11.793Z,11.20
2022-11-18T02:09:38.643Z,11.26
2022-11-18T02:12:05.589Z,11.60
2022-11-18T02:14:34.485Z,11.62
2022-11-18T02:17:01.194Z,11.63
2022-11-18T02:19:49.528Z,11.55
2022-11-18T02:22:25.114Z,11.69
2022-11-18T02:24:59.759Z,11.14
2022-11-18T02:27:41.884Z,11.42
2022-11-18T02:30:09.903Z,11.51
2022-11-18T02:32:36.639Z,11.63
2022-11-18T02:35:08.090Z,11.67
2022-11-18T02:37:37.030Z,11.46
2022-11-18T02:40:30.168Z,11.60
2022-11-18T02:43:06.600Z,11.63
2022-11-18T02:45:33.874Z,11.82
2022-11-18T02:48:04.254Z,11.88
2022-11-18T02:50:33.692Z,11.81
2022-11-18T02:53:01.707Z,11.83
2022-11-18T02:55:31.098Z,11.82
2022-11-18T02:57:58.592Z,11.94
2022-11-18T03:00:25.334Z,12.08
2022-11-18T03:02:52.129Z,11.74
2022-11-18T03:05:37.710Z,11.68
2022-11-18T03:08:09.799Z,11.47
2022-11-18T03:10:42.596Z,11.23
2022-11-18T03:13:15.115Z,11.54
2022-11-18T03:15:48.692Z,10.54
2022-11-18T03:18:24.495Z,10.98
2022-11-18T03:20:53.598Z,10.81
2022-11-18T03:23:25.568Z,10.96
2022-11-18T03:25:57.835Z,10.54
2022-11-18T03:28:30.446Z,10.78
2022-11-18T03:31:01.800Z,10.84
2022-11-18T03:33:38.138Z,9.87
2022-11-18T03:36:07.067Z,9.71
2022-11-18T03:38:36.762Z,10.04
2022-11-18T03:41:05.653Z,9.79
2022-11-18T03:43:34.936Z,10.47
2022-11-18T03:46:04.538Z,10.46
2022-11-18T03:48:34.527Z,10.32
2022-11-18T03:51:02.876Z,10.26
2022-11-18T03:53:32.135Z,9.66
2022-11-18T03:56:25.212Z,10.17
2022-11-18T03:58:54.959Z,9.81
2022-11-18T04:01:25.488Z,9.54
2022-11-18T04:03:52.239Z,10.02
2022-11-18T04:06:26.809Z,9.48
2022-11-18T04:08:56.148Z,9.54
2022-11-18T04:11:54.445Z,9.58
2022-11-18T04:14:21.211Z,10.17
2022-11-18T04:16:50.761Z,9.70
2022-11-18T04:19:17.500Z,10.34
2022-11-18T04:21:44.238Z,10.39
2022-11-18T04:24:10.962Z,9.59
2022-11-18T04:26:37.646Z,9.30
2022-11-18T04:29:04.295Z,9.49
2022-11-18T04:31:31.038Z,9.33
2022-11-18T04:33:57.767Z,10.01
2022-11-18T04:36:24.455Z,9.68
2022-11-18T04:38:51.166Z,9.91
2022-11-18T04:41:17.885Z,10.29
2022-11-18T04:43:44.636Z,10.00
2022-11-18T04:46:11.357Z,9.42
2022-11-18T04:48:38.061Z,10.10
2022-11-18T04:51:05.224Z,10.09
2022-11-18T04:53:31.960Z,10.17
2022-11-18T04:56:04.799Z,10.44
2022-11-18T04:58:31.681Z,9.93
2022-11-18T05:00:58.491Z,10.17
2022-11-18T05:03:25.253Z,10.04
2022-11-18T05:05:52.043Z,10.00
2022-11-18T05:08:18.772Z,10.62
2022-11-18T05:10:45.450Z,10.02
2022-11-18T05:13:13.283Z,9.43
2022-11-18T05:15:40.060Z,10.09
2022-11-18T05:18:06.761Z,9.08
2022-11-18T05:20:36.183Z,10.13
2022-11-18T05:23:07.066Z,9.96
2022-11-18T05:25:35.915Z,9.94
2022-11-18T05:28:03.343Z,10.14
2022-11-18T05:30:30.055Z,9.99
2022-11-18T05:32:56.762Z,9.65
2022-11-18T05:35:23.536Z,10.15
2022-11-18T05:37:50.806Z,8.77
2022-11-18T05:40:17.766Z,9.20
2022-11-18T05:43:02.941Z,8.98
2022-11-18T05:45:29.640Z,8.95
2022-11-18T05:48:04.567Z,9.29
2022-11-18T05:50:32.436Z,9.45
2022-11-18T05:52:59.471Z,9.13
2022-11-18T05:55:29.382Z,10.14
2022-11-18T05:57:56.077Z,10.14
2022-11-18T06:00:23.046Z,10.58
2022-11-18T06:02:51.517Z,10.49
2022-11-18T06:05:19.203Z,10.66
2022-11-18T06:07:46.416Z,10.93
2022-11-18T06:10:16.581Z,11.11
2022-11-18T06:12:45.384Z,11.22
2022-11-18T06:15:23.168Z,10.66
2022-11-18T06:17:59.006Z,10.87
2022-11-18T06:20:26.973Z,10.86
2022-11-18T06:22:54.926Z,10.32
2022-11-18T06:25:21.942Z,10.25
2022-11-18T06:27:50.160Z,10.61
2022-11-18T06:30:17.138Z,10.30
2022-11-18T06:32:46.642Z,10.41
2022-11-18T06:35:13.342Z,10.18
2022-11-18T06:37:40.506Z,10.59
2022-11-18T06:40:10.187Z,10.27
2022-11-18T06:42:56.116Z,10.55
2022-11-18T06:45:23.243Z,10.46
2022-11-18T06:47:50.121Z,10.93
2022-11-18T06:50:17.196Z,10.72
2022-11-18T06:52:44.762Z,10.76
2022-11-18T06:55:11.766Z,10.97
2022-11-18T06:57:39.874Z,10.96
2022-11-18T07:00:07.461Z,10.88
2022-11-18T07:02:38.681Z,11.31
2022-11-18T07:05:06.674Z,11.29
2022-11-18T07:07:40.505Z,11.14
2022-11-18T07:10:09.303Z,10.75
2022-11-18T07:12:36.078Z,11.35
2022-11-18T07:15:02.888Z,11.35
2022-11-18T07:17:32.846Z,11.51
2022-11-18T07:20:01.187Z,11.62
2022-11-18T07:22:31.405Z,11.60
2022-11-18T07:25:00.643Z,11.40
2022-11-18T07:27:27.479Z,11.47
2022-11-18T07:29:54.515Z,10.90
2022-11-18T07:32:21.425Z,11.31
2022-11-18T07:34:49.473Z,11.59
2022-11-18T07:37:16.324Z,11.77
2022-11-18T07:39:43.123Z,11.99
2022-11-18T07:42:10.201Z,11.94
2022-11-18T07:44:37.167Z,11.94
2022-11-18T07:47:03.989Z,11.96
2022-11-18T07:49:30.840Z,11.45
2022-11-18T07:51:57.627Z,12.05
2022-11-18T07:54:24.464Z,11.86
2022-11-18T07:56:53.597Z,11.13
2022-11-18T07:59:24.926Z,11.47
2022-11-18T08:01:54.027Z,10.79
2022-11-18T08:04:23.280Z,11.31
2022-11-18T08:06:50.236Z,11.24
2022-11-18T08:09:17.347Z,11.63
2022-11-18T08:11:44.355Z,11.38
2022-11-18T08:14:11.311Z,11.64
2022-11-18T08:16:38.387Z,11.77
2022-11-18T08:19:05.255Z,11.44
2022-11-18T08:21:33.662Z,11.48
2022-11-18T08:24:02.938Z,11.22
2022-11-18T08:26:29.846Z,11.54
2022-11-18T08:28:57.633Z,11.55
2022-11-18T08:31:27.438Z,11.49
2022-11-18T08:34:18.393Z,10.78
2022-11-18T08:36:46.996Z,11.20
2022-11-18T08:39:16.775Z,11.36
2022-11-18T08:41:46.430Z,10.73
2022-11-18T08:44:14.922Z,11.10
2022-11-18T08:46:45.318Z,10.77
2022-11-18T08:49:12.528Z,11.23
2022-11-18T08:51:42.454Z,10.86
2022-11-18T08:54:15.717Z,10.54
2022-11-18T08:56:49.710Z,10.72
2022-11-18T08:59:17.138Z,10.62
2022-11-18T09:01:46.457Z,10.83
2022-11-18T09:04:13.400Z,10.61
2022-11-18T09:06:40.695Z,10.67
2022-11-18T09:09:12.422Z,11.42
2022-11-18T09:11:44.908Z,11.55
2022-11-18T09:17:03.734Z,11.63
2022-11-18T09:19:47.624Z,12.01
2022-11-18T09:22:15.072Z,12.14
2022-11-18T09:24:51.362Z,12.22
2022-11-18T09:27:28.009Z,12.10
2022-11-18T09:29:54.877Z,12.31
2022-11-18T09:32:21.702Z,12.19
2022-11-18T09:34:50.827Z,12.04
2022-11-18T09:37:17.796Z,12.11
2022-11-18T09:39:44.706Z,12.09
2022-11-18T09:42:32.591Z,12.46
2022-11-18T09:45:14.546Z,12.39
2022-11-18T09:47:44.403Z,12.46
2022-11-18T09:50:41.809Z,12.15
2022-11-18T09:53:13.983Z,12.48
2022-11-18T09:55:44.505Z,12.06
2022-11-18T09:58:32.079Z,12.07
2022-11-18T10:00:59.056Z,12.20
2022-11-18T10:03:38.964Z,12.47
2022-11-18T10:06:29.890Z,11.45
2022-11-18T10:09:21.393Z,12.11
2022-11-18T10:12:08.729Z,11.69
2022-11-18T10:14:53.299Z,11.70
2022-11-18T10:17:23.534Z,11.84
2022-11-18T10:19:57.661Z,12.05
2022-11-18T10:22:31.279Z,11.82
2022-11-18T10:24:58.863Z,11.76
2022-11-18T10:27:37.697Z,11.79
2022-11-18T10:30:15.961Z,11.76
2022-11-18T10:33:03.520Z,11.98
2022-11-18T10:35:34.535Z,11.99
2022-11-18T10:38:08.192Z,11.99
2022-11-18T10:40:40.898Z,11.30
2022-11-18T10:43:10.533Z,11.11
2022-11-18T10:45:37.515Z,11.01
2022-11-18T10:48:18.043Z,11.09
2022-11-18T10:50:55.276Z,11.34
2022-11-18T10:53:49.090Z,10.93
2022-11-18T10:56:20.627Z,11.03
2022-11-18T10:59:01.946Z,10.55
2022-11-18T11:01:36.450Z,10.58
2022-11-18T11:04:23.679Z,10.08
2022-11-18T11:06:51.145Z,10.29
2022-11-18T11:09:59.993Z,10.16
2022-11-18T11:12:30.412Z,9.79
2022-11-18T11:15:01.355Z,9.57
2022-11-18T11:20:49.767Z,9.94
2022-11-18T11:23:23.472Z,10.19
2022-11-18T11:28:53.215Z,10.29
2022-11-18T11:31:38.488Z,9.77
2022-11-18T11:34:16.631Z,10.23
2022-11-18T11:37:04.804Z,10.00
2022-11-18T11:39:37.620Z,10.54
2022-11-18T11:42:07.493Z,10.46
2022-11-18T11:44:37.575Z,10.78
2022-11-18T11:47:25.970Z,10.48
2022-11-18T11:49:54.389Z,10.59
2022-11-18T11:52:41.416Z,10.51
2022-11-18T11:55:27.515Z,10.22
2022-11-18T11:58:15.708Z,9.72
2022-11-18T12:00:47.326Z,9.77
2022-11-18T12:03:34.980Z,10.21
2022-11-18T12:06:08.321Z,10.16
2022-11-18T12:08:35.528Z,10.20
2022-11-18T12:11:12.231Z,10.25
2022-11-18T12:14:02.236Z,10.74
2022-11-18T12:16:49.788Z,10.58
2022-11-18T12:19:18.586Z,10.98
2022-11-18T12:21:48.490Z,10.90
2022-11-18T12:24:21.096Z,10.68
2022-11-18T12:26:48.776Z,10.85
2022-11-18T12:29:18.941Z,11.02
2022-11-18T12:32:13.746Z,10.88
2022-11-18T12:34:46.845Z,10.32
2022-11-18T12:37:29.865Z,10.42
2022-11-18T12:40:10.209Z,10.57
2022-11-18T12:43:09.004Z,10.82
2022-11-18T12:45:45.330Z,11.19
2022-11-18T12:48:27.832Z,10.94
2022-11-18T12:50:56.131Z,10.75
2022-11-18T12:53:35.284Z,10.74
2022-11-18T12:56:11.418Z,11.08
2022-11-18T12:58:38.395Z,11.24
2022-11-18T13:01:08.649Z,11.33
2022-11-18T13:03:39.449Z,10.80
2022-11-18T13:06:11.932Z,11.37
2022-11-18T13:08:40.610Z,11.30
2022-11-18T13:12:26.183Z,11.45
2022-11-18T13:14:52.669Z,11.68
2022-11-18T13:17:53.413Z,12.07
2022-11-18T13:20:36.151Z,11.25
2022-11-18T13:23:35.213Z,11.11
2022-11-18T13:26:06.319Z,11.63
2022-11-18T13:28:33.134Z,11.82
2022-11-18T13:30:59.972Z,11.87
2022-11-18T13:33:27.087Z,11.82
2022-11-18T13:35:54.100Z,11.69
2022-11-18T13:38:28.340Z,11.35
2022-11-18T13:41:09.332Z,11.40
2022-11-18T13:43:36.245Z,11.55
2022-11-18T13:46:17.106Z,11.46
2022-11-18T13:48:49.189Z,11.78
2022-11-18T13:51:16.224Z,11.90
2022-11-18T13:53:45.054Z,11.99
2022-11-18T13:56:21.265Z,11.99
2022-11-18T14:01:38.294Z,11.26
2022-11-18T14:04:09.723Z,10.69
2022-11-18T14:06:48.153Z,11.47
2022-11-18T14:09:25.626Z,11.65
2022-11-18T14:14:48.941Z,11.28
2022-11-18T14:17:18.975Z,11.59
2022-11-18T14:19:47.772Z,10.91
2022-11-18T14:22:21.974Z,10.67
2022-11-18T14:24:58.064Z,11.56
2022-11-18T14:27:44.667Z,11.74
2022-11-18T14:30:31.670Z,11.63
2022-11-18T14:33:16.154Z,11.84
2022-11-18T14:36:07.525Z,12.09
2022-11-18T14:38:47.659Z,12.02
2022-11-18T14:41:44.662Z,11.82
2022-11-18T14:44:13.928Z,11.81
2022-11-18T14:46:47.622Z,12.20
2022-11-18T14:49:19.341Z,12.30
2022-11-18T14:51:49.015Z,12.15
2022-11-18T14:54:23.871Z,12.45
2022-11-18T14:56:53.867Z,12.58
2022-11-18T14:59:37.821Z,12.54
2022-11-18T15:02:04.863Z,12.58
2022-11-18T15:04:32.254Z,12.57
2022-11-18T15:06:59.115Z,12.48
2022-11-18T15:09:28.772Z,12.43
2022-11-18T15:11:55.570Z,12.54
2022-11-18T15:14:22.428Z,12.41
2022-11-18T15:16:49.565Z,12.50
2022-11-18T15:19:16.717Z,12.41
2022-11-18T15:21:44.341Z,12.46
2022-11-18T15:24:11.071Z,12.48
2022-11-18T15:26:42.830Z,12.32
2022-11-18T15:29:16.242Z,12.32
2022-11-18T15:31:43.051Z,12.40
2022-11-18T15:34:10.409Z,12.25
2022-11-18T15:36:37.231Z,12.30
2022-11-18T15:39:04.107Z,12.24
2022-11-18T15:41:31.737Z,12.22
2022-11-18T15:44:00.006Z,11.97
2022-11-18T15:46:28.204Z,11.58
2022-11-18T15:48:56.014Z,11.74
2022-11-18T15:51:23.340Z,11.49
2022-11-18T15:53:50.259Z,11.41
2022-11-18T15:56:27.073Z,11.58
2022-11-18T15:59:07.076Z,11.69
2022-11-18T16:01:35.476Z,11.72
2022-11-18T16:04:02.702Z,11.45
2022-11-18T16:06:29.726Z,11.63
2022-11-18T16:08:59.977Z,11.66
2022-11-18T16:11:45.871Z,11.78
2022-11-18T16:14:13.444Z,11.54
2022-11-18T16:16:40.896Z,11.76
2022-11-18T16:19:08.702Z,11.87
2022-11-18T16:21:36.576Z,11.85
2022-11-18T16:24:04.911Z,11.60
2022-11-18T16:26:32.236Z,11.70
2022-11-18T16:28:59.554Z,11.78
2022-11-18T16:31:42.236Z,11.86
2022-11-18T16:34:09.982Z,11.71
2022-11-18T16:36:37.548Z,11.64
2022-11-18T16:39:05.644Z,11.65
2022-11-18T16:41:32.469Z,11.67
2022-11-18T16:44:00.044Z,11.72
2022-11-18T16:46:27.120Z,11.68
2022-11-18T16:48:53.874Z,11.57
2022-11-18T16:51:21.759Z,11.51
2022-11-18T16:53:55.533Z,11.54
2022-11-18T16:56:23.229Z,11.54
2022-11-18T16:58:49.955Z,11.33
2022-11-18T17:01:21.022Z,11.26
2022-11-18T17:03:50.831Z,11.27
2022-11-18T17:06:17.633Z,11.28
2022-11-18T17:08:44.427Z,11.04
2022-11-18T17:11:11.707Z,10.99
2022-11-18T17:13:38.693Z,11.03
2022-11-18T17:16:06.825Z,11.19
2022-11-18T17:18:33.774Z,11.09
2022-11-18T17:21:07.903Z,11.27
2022-11-18T17:23:35.061Z,11.49
2022-11-18T17:26:02.319Z,11.57
2022-11-18T17:28:32.833Z,11.49
2022-11-18T17:31:04.677Z,11.50
2022-11-18T17:33:31.411Z,11.50
2022-11-18T17:36:01.458Z,11.23
2022-11-18T17:38:29.078Z,11.31
2022-11-18T17:40:56.622Z,11.44
2022-11-18T17:43:24.246Z,11.35
2022-11-18T17:45:51.915Z,11.41
2022-11-18T17:48:19.203Z,11.45
2022-11-18T17:50:46.223Z,11.26
2022-11-18T17:53:13.143Z,11.47
2022-11-18T17:55:40.236Z,11.32
2022-11-18T17:58:07.403Z,11.35
2022-11-18T18:00:34.926Z,11.35
2022-11-18T18:03:02.230Z,11.12
2022-11-18T18:05:28.957Z,11.55
2022-11-18T18:07:56.425Z,11.31
2022-11-18T18:10:23.943Z,11.26
2022-11-18T18:13:09.673Z,11.41
2022-11-18T18:15:36.536Z,11.51
2022-11-18T18:18:03.351Z,11.31
2022-11-18T18:20:30.344Z,11.43
2022-11-18T18:22:57.324Z,11.27
2022-11-18T18:25:24.021Z,11.22
2022-11-18T18:27:50.771Z,10.87
2022-11-18T18:30:17.704Z,11.04
2022-11-18T18:32:49.473Z,11.11
2022-11-18T18:35:18.958Z,11.06
2022-11-18T18:37:45.670Z,10.47
2022-11-18T18:40:13.986Z,10.92
2022-11-18T18:42:40.820Z,10.81
2022-11-18T18:45:26.597Z,10.82
2022-11-18T18:47:53.351Z,10.89
2022-11-18T18:50:22.789Z,10.91
2022-11-18T18:52:53.522Z,10.61
2022-11-18T18:55:20.278Z,10.98
2022-11-18T18:57:47.062Z,10.33
2022-11-18T19:00:14.195Z,10.33
2022-11-18T19:02:40.989Z,10.59
2022-11-18T19:05:08.041Z,10.61
2022-11-18T19:07:34.900Z,10.46
2022-11-18T19:10:02.279Z,10.90
2022-11-18T19:12:43.987Z,10.85
2022-11-18T19:15:11.897Z,10.80
2022-11-18T19:17:39.218Z,10.21
2022-11-18T19:20:25.375Z,10.19
2022-11-18T19:22:52.174Z,10.55
2022-11-18T19:25:19.032Z,10.66
2022-11-18T19:27:45.811Z,10.81
2022-11-18T19:30:12.879Z,10.55
2022-11-18T19:32:40.249Z,10.12
2022-11-18T19:35:07.449Z,10.60
2022-11-18T19:37:34.570Z,9.93
2022-11-18T19:40:08.867Z,10.04
2022-11-18T19:42:37.974Z,9.81
2022-11-18T19:45:05.678Z,9.82
2022-11-18T19:47:32.689Z,9.76
2022-11-18T19:49:59.503Z,9.94
2022-11-18T19:52:26.460Z,10.02
2022-11-18T19:54:53.283Z,9.69
2022-11-18T19:57:20.123Z,9.75
2022-11-18T19:59:46.938Z,9.95
2022-11-18T20:02:13.795Z,9.69
2022-11-18T20:04:40.647Z,9.81
2022-11-18T20:07:07.374Z,9.39
2022-11-18T20:09:34.239Z,9.47
2022-11-18T20:12:01.108Z,9.60
2022-11-18T20:14:27.958Z,9.77
2022-11-18T20:16:54.774Z,9.64
2022-11-18T20:19:21.631Z,9.78
2022-11-18T20:21:49.672Z,9.49
2022-11-18T20:24:17.614Z,9.44
2022-11-18T20:26:44.918Z,9.07
2022-11-18T20:29:11.873Z,9.19
2022-11-18T20:31:38.807Z,9.43
2022-11-18T20:34:05.758Z,9.08
2022-11-18T20:36:34.690Z,9.02
2022-11-18T20:39:03.770Z,8.89
2022-11-18T20:41:31.986Z,8.60
2022-11-18T20:43:59.514Z,8.16
2022-11-18T20:46:26.616Z,8.24
2022-11-18T20:48:53.906Z,7.81
2022-11-18T20:51:23.863Z,8.16
2022-11-18T20:53:51.370Z,7.74
2022-11-18T20:56:19.292Z,7.66
2022-11-18T20:58:46.107Z,7.56
2022-11-18T21:01:17.143Z,7.60
2022-11-18T21:03:48.173Z,8.32
2022-11-18T21:06:14.985Z,7.99
2022-11-18T21:08:42.723Z,8.26
2022-11-18T21:11:10.828Z,8.21
2022-11-18T21:13:56.676Z,7.50
2022-11-18T21:16:23.744Z,7.66
2022-11-18T21:18:50.492Z,7.63
2022-11-18T21:21:35.995Z,7.94
2022-11-18T21:24:03.800Z,8.20
2022-11-18T21:26:31.884Z,8.11
2022-11-18T21:29:00.134Z,7.81
2022-11-18T21:31:27.807Z,7.58
2022-11-18T21:33:55.043Z,7.56
2022-11-18T21:36:22.723Z,7.44
2022-11-18T21:38:49.714Z,7.12
2022-11-18T21:41:17.172Z,6.74
2022-11-18T21:44:04.485Z,6.47
2022-11-18T21:46:31.686Z,6.46
2022-11-18T21:49:00.413Z,6.93
2022-11-18T21:51:27.724Z,7.01
2022-11-18T21:53:54.692Z,7.28
2022-11-18T21:56:22.739Z,7.27
2022-11-18T21:58:49.840Z,7.64
2022-11-18T22:01:24.068Z,7.24
2022-11-18T22:03:55.300Z,7.42
2022-11-18T22:06:23.190Z,7.18
2022-11-18T22:08:50.779Z,7.40
2022-11-18T22:11:17.759Z,7.27
2022-11-18T22:13:44.499Z,7.20
2022-11-18T22:16:15.666Z,6.25
2022-11-18T22:18:43.903Z,7.00
2022-11-18T22:21:12.225Z,6.42
2022-11-18T22:23:39.292Z,7.28
2022-11-18T22:26:08.973Z,7.40
2022-11-18T22:28:36.223Z,7.36
2022-11-18T22:31:07.500Z,7.28
2022-11-18T22:33:34.380Z,7.27
2022-11-18T22:36:02.316Z,7.25
2022-11-18T22:38:29.444Z,7.47
2022-11-18T22:40:59.995Z,6.83
2022-11-18T22:43:26.758Z,6.25
2022-11-18T22:46:03.767Z,6.32
2022-11-18T22:48:30.823Z,6.12
2022-11-18T22:51:01.822Z,6.14
2022-11-18T22:53:29.441Z,6.27
2022-11-18T22:56:02.368Z,5.96
2022-11-18T22:58:29.541Z,6.44
2022-11-18T23:00:59.713Z,6.79
2022-11-18T23:03:26.558Z,6.23
2022-11-18T23:05:53.347Z,6.73
2022-11-18T23:08:20.217Z,6.94
2022-11-18T23:10:47.027Z,6.93
2022-11-18T23:13:32.204Z,7.16
2022-11-18T23:15:59.359Z,7.27
2022-11-18T23:18:26.952Z,7.28
2022-11-18T23:20:59.065Z,7.10
2022-11-18T23:23:25.876Z,6.89
2022-11-18T23:25:52.843Z,7.20
2022-11-18T23:28:19.988Z,7.04
2022-11-18T23:30:46.779Z,7.16
2022-11-18T23:33:13.653Z,6.93
2022-11-18T23:35:40.397Z,7.08
2022-11-18T23:38:07.204Z,6.69
2022-11-18T23:40:33.963Z,6.60
2022-11-18T23:43:00.806Z,6.50
2022-11-18T23:45:27.634Z,6.07
2022-11-18T23:47:54.389Z,6.24
2022-11-18T23:50:21.165Z,5.90
2022-11-18T23:52:47.918Z,6.56
2022-11-18T23:55:14.750Z,5.83
2022-11-18T23:57:41.571Z,5.82
